Time;durP1;ratioP1;P1;durP2;ratioP2;P2;SDS_P1;SDS_P2;PMS_P1;PMS_P2;Temp;Humidity;BMP_temperature;BMP_pressure;BME280_temperature;BME280_humidity;BME280_pressure;Samples;Min_cycle;Max_cycle;Signal;HPM_P1;HPM_P2
2023/06/19 00:00:30;;;;;;;9.65;8.23;;;;;;;;;;5032191;28;20025;-70
2023/06/19 00:02:56;;;;;;;11.45;8.77;;;;;;;;;;5031182;28;20100;-70
2023/06/19 00:05:25;;;;;;;10.18;9.13;;;;;;;;;;5032914;28;20033;-70
2023/06/19 00:07:51;;;;;;;10.07;9.07;;;;;;;;;;5032738;28;20508;-70
2023/06/19 00:10:17;;;;;;;10.02;8.73;;;;;;;;;;5032820;28;20028;-70
2023/06/19 00:12:43;;;;;;;9.30;8.40;;;;;;;;;;5032543;28;20025;-70
2023/06/19 00:15:10;;;;;;;11.13;9.65;;;;;;;;;;5032560;28;20377;-70
2023/06/19 00:17:39;;;;;;;11.13;9.68;;;;;;;;;;5032292;28;20033;-70
2023/06/19 00:20:05;;;;;;;12.03;10.23;;;;;;;;;;5032737;28;20583;-70
2023/06/19 00:22:31;;;;;;;10.85;9.75;;;;;;;;;;5019443;28;20048;-70
2023/06/19 00:24:57;;;;;;;10.40;9.13;;;;;;;;;;5032608;28;20018;-70
2023/06/19 00:27:26;;;;;;;12.52;9.43;;;;;;;;;;5032423;28;20120;-70
2023/06/19 00:29:52;;;;;;;11.70;9.48;;;;;;;;;;5032495;28;20120;-70
2023/06/19 00:32:18;;;;;;;10.50;8.88;;;;;;;;;;5032249;28;20128;-70
2023/06/19 00:34:44;;;;;;;10.40;9.30;;;;;;;;;;5032392;28;20021;-70
2023/06/19 00:37:13;;;;;;;11.82;9.35;;;;;;;;;;5032192;28;20097;-70
2023/06/19 00:39:39;;;;;;;10.68;9.40;;;;;;;;;;5032575;28;20056;-70
2023/06/19 00:42:06;;;;;;;12.23;9.23;;;;;;;;;;5032001;28;20014;-70
2023/06/19 00:44:31;;;;;;;12.43;9.43;;;;;;;;;;5032270;28;20346;-70
2023/06/19 00:47:01;;;;;;;10.80;9.05;;;;;;;;;;5031655;28;20124;-70
2023/06/19 00:49:29;;;;;;;11.45;9.95;;;;;;;;;;5032345;28;20026;-70
2023/06/19 00:51:55;;;;;;;10.93;9.77;;;;;;;;;;5018995;28;20025;-70
2023/06/19 00:54:21;;;;;;;11.52;9.05;;;;;;;;;;5032306;28;20026;-70
2023/06/19 00:56:48;;;;;;;11.85;9.30;;;;;;;;;;5031919;28;20035;-70
2023/06/19 00:59:18;;;;;;;10.45;9.02;;;;;;;;;;5032091;28;20428;-70
2023/06/19 01:01:44;;;;;;;;;;;;;;;;;;5032358;28;20086;-70
2023/06/19 01:04:10;;;;;;;9.52;8.52;;;;;;;;;;5032024;28;19908;-70
2023/06/19 01:06:41;;;;;;;8.98;8.07;;;;;;;;;;5031867;28;20029;-70
2023/06/19 01:09:11;;;;;;;10.70;8.90;;;;;;;;;;5031929;28;20032;-70
2023/06/19 01:11:43;;;;;;;9.63;8.65;;;;;;;;;;5020471;28;20048;-70
2023/06/19 01:14:13;;;;;;;10.82;7.75;;;;;;;;;;5036428;28;20025;-70
2023/06/19 01:16:39;;;;;;;9.68;8.50;;;;;;;;;;5035971;28;20115;-70
2023/06/19 01:19:06;;;;;;;9.80;7.65;;;;;;;;;;5035902;28;20025;-70
2023/06/19 01:21:32;;;;;;;10.43;8.57;;;;;;;;;;5035988;28;20080;-70
2023/06/19 01:23:58;;;;;;;9.77;8.50;;;;;;;;;;5033695;28;20021;-70
2023/06/19 01:26:26;;;;;;;13.02;9.43;;;;;;;;;;5025135;28;20338;-70
2023/06/19 01:28:52;;;;;;;11.32;9.05;;;;;;;;;;5036137;28;20114;-70
2023/06/19 01:31:23;;;;;;;10.65;9.48;;;;;;;;;;5035806;28;20036;-70
2023/06/19 01:33:50;;;;;;;10.50;9.40;;;;;;;;;;5035788;28;20120;-70
2023/06/19 01:36:17;;;;;;;10.43;9.10;;;;;;;;;;5035622;28;20100;-70
2023/06/19 01:38:44;;;;;;;9.93;8.43;;;;;;;;;;5022104;28;20048;-70
2023/06/19 01:41:11;;;;;;;11.55;9.38;;;;;;;;;;5035601;28;20100;-70
2023/06/19 01:43:37;;;;;;;10.95;9.15;;;;;;;;;;5035089;28;20036;-70
2023/06/19 01:46:03;;;;;;;10.15;9.15;;;;;;;;;;5034304;28;20060;-70
2023/06/19 01:48:30;;;;;;;13.95;8.77;;;;;;;;;;5035570;28;20029;-70
2023/06/19 01:50:57;;;;;;;9.88;8.85;;;;;;;;;;5035357;28;20029;-70
2023/06/19 01:53:23;;;;;;;10.63;8.60;;;;;;;;;;5035432;28;20500;-70
2023/06/19 01:55:49;;;;;;;12.40;9.18;;;;;;;;;;5024650;28;20461;-70
2023/06/19 01:58:15;;;;;;;9.93;8.93;;;;;;;;;;5032941;28;20036;-70
2023/06/19 02:00:41;;;;;;;10.10;9.10;;;;;;;;;;5035263;28;20029;-70
2023/06/19 02:03:07;;;;;;;11.93;9.82;;;;;;;;;;5035377;28;20029;-70
2023/06/19 02:05:34;;;;;;;10.18;8.55;;;;;;;;;;5035003;28;20473;-70
2023/06/19 02:08:00;;;;;;;11.10;8.90;;;;;;;;;;5035019;28;20329;-70
2023/06/19 02:10:26;;;;;;;10.45;9.35;;;;;;;;;;5035118;28;20036;-70
2023/06/19 02:12:52;;;;;;;11.25;9.07;;;;;;;;;;5018023;28;20026;-70
2023/06/19 02:15:18;;;;;;;10.15;8.73;;;;;;;;;;5025831;28;20053;-70
2023/06/19 02:17:44;;;;;;;10.10;8.98;;;;;;;;;;5017828;28;20088;-70
2023/06/19 02:20:11;;;;;;;10.45;8.90;;;;;;;;;;5025963;28;20168;-70
2023/06/19 02:22:41;;;;;;;10.65;8.93;;;;;;;;;;5034423;28;20492;-70
2023/06/19 02:25:07;;;;;;;9.45;8.23;;;;;;;;;;5023709;28;20040;-70
2023/06/19 02:27:33;;;;;;;11.70;8.57;;;;;;;;;;5025507;28;20025;-70
2023/06/19 02:29:59;;;;;;;10.45;8.40;;;;;;;;;;5034694;28;20028;-70
2023/06/19 02:32:26;;;;;;;9.85;8.82;;;;;;;;;;5034603;28;20100;-70
2023/06/19 02:34:52;;;;;;;9.43;8.15;;;;;;;;;;5034527;28;20021;-70
2023/06/19 02:37:18;;;;;;;10.60;9.02;;;;;;;;;;5034418;28;20099;-70
2023/06/19 02:39:44;;;;;;;11.10;9.50;;;;;;;;;;5034521;28;20025;-70
2023/06/19 02:42:10;;;;;;;11.55;9.07;;;;;;;;;;5034193;28;20151;-70
2023/06/19 02:44:36;;;;;;;11.07;9.23;;;;;;;;;;5034379;28;20021;-70
2023/06/19 02:47:02;;;;;;;10.90;8.70;;;;;;;;;;5033918;28;20052;-70
2023/06/19 02:49:28;;;;;;;11.43;9.07;;;;;;;;;;5034253;28;20022;-70
2023/06/19 02:51:54;;;;;;;11.45;9.20;;;;;;;;;;5034325;28;20025;-70
2023/06/19 02:54:20;;;;;;;10.75;9.00;;;;;;;;;;5034069;28;20037;-70
2023/06/19 02:56:52;;;;;;;11.00;8.93;;;;;;;;;;5034064;28;20024;-70
2023/06/19 02:59:18;;;;;;;10.95;9.10;;;;;;;;;;5034046;28;20083;-70
2023/06/19 03:01:44;;;;;;;9.85;8.13;;;;;;;;;;5032833;28;20021;-70
2023/06/19 03:04:10;;;;;;;9.27;8.10;;;;;;;;;;5021631;28;20091;-70
2023/06/19 03:06:39;;;;;;;9.60;8.45;;;;;;;;;;5033601;28;20025;-70
2023/06/19 03:09:11;;;;;;;7.93;6.30;;;;;;;;;;5033988;28;20025;-70
2023/06/19 03:11:37;;;;;;;6.78;5.38;;;;;;;;;;5034023;28;20030;-70
2023/06/19 03:14:07;;;;;;;7.43;4.85;;;;;;;;;;5033691;28;20025;-70
2023/06/19 03:16:33;;;;;;;6.10;4.47;;;;;;;;;;5034033;28;20041;-70
2023/06/19 03:18:59;;;;;;;7.60;4.50;;;;;;;;;;5033645;28;20030;-70
2023/06/19 03:21:25;;;;;;;10.35;4.18;;;;;;;;;;5033770;28;20030;-70
2023/06/19 03:23:51;;;;;;;5.55;4.03;;;;;;;;;;5033690;28;20029;-70
2023/06/19 03:26:18;;;;;;;4.60;3.45;;;;;;;;;;5025640;28;20022;-70
2023/06/19 03:28:46;;;;;;;5.82;3.90;;;;;;;;;;5028619;28;20448;-70
2023/06/19 03:31:12;;;;;;;5.35;3.50;;;;;;;;;;5033486;28;20408;-70
2023/06/19 03:33:38;;;;;;;6.13;3.30;;;;;;;;;;5033463;28;20503;-70
2023/06/19 03:36:04;;;;;;;3.33;3.03;;;;;;;;;;5033215;28;20021;-70
2023/06/19 03:38:30;;;;;;;5.88;3.20;;;;;;;;;;5033282;28;20479;-70
2023/06/19 03:40:56;;;;;;;4.22;3.13;;;;;;;;;;5033410;28;20040;-70
2023/06/19 03:43:22;;;;;;;4.40;3.33;;;;;;;;;;5019876;28;20049;-70
2023/06/19 03:45:48;;;;;;;4.28;2.90;;;;;;;;;;5048671;28;20056;-70
2023/06/19 03:48:14;;;;;;;3.78;3.10;;;;;;;;;;5032020;28;20096;-70
2023/06/19 03:50:40;;;;;;;7.75;3.00;;;;;;;;;;5033271;28;20508;-70
2023/06/19 03:53:06;;;;;;;3.13;2.70;;;;;;;;;;5019596;28;20033;-70
2023/06/19 03:55:32;;;;;;;3.97;3.00;;;;;;;;;;5025541;28;20104;-70
2023/06/19 03:57:58;;;;;;;6.85;2.78;;;;;;;;;;5026939;28;20496;-70
2023/06/19 04:00:24;;;;;;;4.25;3.10;;;;;;;;;;5031876;28;20032;-70
2023/06/19 04:02:50;;;;;;;4.40;3.45;;;;;;;;;;5029950;28;20061;-70
2023/06/19 04:05:17;;;;;;;4.30;3.67;;;;;;;;;;5029967;28;20025;-70
2023/06/19 04:07:44;;;;;;;4.72;3.85;;;;;;;;;;5025043;28;20082;-70
2023/06/19 04:10:11;;;;;;;6.88;4.28;;;;;;;;;;5029719;28;20036;-70
2023/06/19 04:12:45;;;;;;;7.25;4.75;;;;;;;;;;5032492;28;20017;-70
2023/06/19 04:15:11;;;;;;;6.20;5.07;;;;;;;;;;5033012;28;20029;-70
2023/06/19 04:17:37;;;;;;;6.82;4.93;;;;;;;;;;5027722;28;20473;-70
2023/06/19 04:20:10;;;;;;;8.25;4.63;;;;;;;;;;5016135;28;20025;-70
2023/06/19 04:22:37;;;;;;;6.00;4.60;;;;;;;;;;5032681;28;20095;-70
2023/06/19 04:25:03;;;;;;;7.10;5.20;;;;;;;;;;5031943;28;20369;-70
2023/06/19 04:27:29;;;;;;;7.43;4.95;;;;;;;;;;5031966;28;20353;-70
2023/06/19 04:29:55;;;;;;;8.57;5.53;;;;;;;;;;5016686;28;20037;-71
2023/06/19 04:32:21;;;;;;;9.27;6.72;;;;;;;;;;5030026;28;20106;-71
2023/06/19 04:34:47;;;;;;;9.68;7.25;;;;;;;;;;5032031;28;20033;-71
2023/06/19 04:37:13;;;;;;;10.15;7.20;;;;;;;;;;5032619;28;20029;-71
2023/06/19 04:39:39;;;;;;;8.38;6.90;;;;;;;;;;5031710;28;20617;-72
2023/06/19 04:42:06;;;;;;;10.85;7.78;;;;;;;;;;5032461;28;20025;-71
2023/06/19 04:44:33;;;;;;;8.20;6.80;;;;;;;;;;5031858;28;20026;-71
2023/06/19 04:47:01;;;;;;;8.98;6.60;;;;;;;;;;5031658;28;20053;-71
2023/06/19 04:49:30;;;;;;;7.82;6.80;;;;;;;;;;5032177;28;20029;-71
2023/06/19 04:51:57;;;;;;;8.63;7.28;;;;;;;;;;5031946;28;20120;-71
2023/06/19 04:54:23;;;;;;;10.18;8.07;;;;;;;;;;5032087;28;20053;-71
2023/06/19 04:56:49;;;;;;;11.60;9.07;;;;;;;;;;5018901;28;20092;-71
2023/06/19 04:59:17;;;;;;;16.50;11.48;;;;;;;;;;5032265;28;20655;-71
2023/06/19 05:01:44;;;;;;;19.02;12.93;;;;;;;;;;5031927;28;20530;-71
2023/06/19 05:04:13;;;;;;;18.60;13.88;;;;;;;;;;5023505;28;20608;-71
2023/06/19 05:06:39;;;;;;;18.40;13.15;;;;;;;;;;5027422;28;20038;-71
2023/06/19 05:09:05;;;;;;;19.10;14.90;;;;;;;;;;5021433;28;20072;-71
2023/06/19 05:11:31;;;;;;;22.88;15.77;;;;;;;;;;5023749;28;20029;-71
2023/06/19 05:13:57;;;;;;;22.38;15.77;;;;;;;;;;5027590;28;20080;-71
2023/06/19 05:16:24;;;;;;;22.63;17.10;;;;;;;;;;5031746;28;20027;-71
2023/06/19 05:18:51;;;;;;;25.92;19.13;;;;;;;;;;5031843;28;20052;-71
2023/06/19 05:21:17;;;;;;;24.73;17.13;;;;;;;;;;5031750;28;20022;-71
2023/06/19 05:23:43;;;;;;;26.33;20.65;;;;;;;;;;5032087;28;20100;-71
2023/06/19 05:26:09;;;;;;;25.25;20.27;;;;;;;;;;5031280;28;20102;-71
2023/06/19 05:28:35;;;;;;;27.50;21.48;;;;;;;;;;5031816;28;20034;-71
2023/06/19 05:31:01;;;;;;;28.92;22.38;;;;;;;;;;5031459;28;20075;-71
2023/06/19 05:33:27;;;;;;;29.38;24.45;;;;;;;;;;5031554;28;20033;-71
2023/06/19 05:35:54;;;;;;;28.13;24.02;;;;;;;;;;5018134;28;20469;-71
2023/06/19 05:38:20;;;;;;;29.98;23.33;;;;;;;;;;5023525;28;20037;-71
2023/06/19 05:40:46;;;;;;;28.90;23.73;;;;;;;;;;5026035;28;20072;-71
2023/06/19 05:43:13;;;;;;;26.90;21.35;;;;;;;;;;5023221;28;20022;-71
2023/06/19 05:45:39;;;;;;;23.52;19.88;;;;;;;;;;5027736;28;20080;-71
2023/06/19 05:48:05;;;;;;;29.48;20.92;;;;;;;;;;5030888;28;20041;-71
2023/06/19 05:50:34;;;;;;;30.70;20.85;;;;;;;;;;5026568;28;20052;-71
2023/06/19 05:53:00;;;;;;;32.38;21.73;;;;;;;;;;5018493;28;20052;-71
2023/06/19 05:55:27;;;;;;;31.80;21.75;;;;;;;;;;5031410;28;20093;-71
2023/06/19 05:57:53;;;;;;;31.52;21.40;;;;;;;;;;5030851;28;20026;-71
2023/06/19 06:00:19;;;;;;;30.38;23.67;;;;;;;;;;5020041;28;20408;-71
2023/06/19 06:02:45;;;;;;;28.25;23.13;;;;;;;;;;5024611;28;20029;-71
2023/06/19 06:05:11;;;;;;;29.40;22.55;;;;;;;;;;5034607;28;20026;-71
2023/06/19 06:07:38;;;;;;;31.58;20.98;;;;;;;;;;5026382;28;20113;-71
2023/06/19 06:10:11;;;;;;;31.75;21.50;;;;;;;;;;5030918;28;20107;-71
2023/06/19 06:12:37;;;;;;;28.77;24.58;;;;;;;;;;5035137;28;20063;-71
2023/06/19 06:15:05;;;;;;;29.05;23.38;;;;;;;;;;5031153;28;20018;-71
2023/06/19 06:17:31;;;;;;;32.58;23.95;;;;;;;;;;5015513;28;20095;-71
2023/06/19 06:19:57;;;;;;;30.73;23.38;;;;;;;;;;5032864;28;20057;-71
2023/06/19 06:22:23;;;;;;;35.67;24.67;;;;;;;;;;5023698;28;20105;-71
2023/06/19 06:24:49;;;;;;;33.20;23.95;;;;;;;;;;5032958;28;20025;-71
2023/06/19 06:27:15;;;;;;;35.13;24.42;;;;;;;;;;5034760;28;20029;-71
2023/06/19 06:29:41;;;;;;;38.13;25.42;;;;;;;;;;5034663;28;20091;-71
2023/06/19 06:32:07;;;;;;;36.95;25.45;;;;;;;;;;5034620;28;20029;-71
2023/06/19 06:34:34;;;;;;;36.60;23.52;;;;;;;;;;5034373;28;20033;-71
2023/06/19 06:37:00;;;;;;;35.28;23.08;;;;;;;;;;5034357;28;20038;-71
2023/06/19 06:39:26;;;;;;;33.13;20.70;;;;;;;;;;5034298;28;20037;-71
2023/06/19 06:41:53;;;;;;;34.20;20.75;;;;;;;;;;5034440;28;20408;-71
2023/06/19 06:44:19;;;;;;;29.00;18.50;;;;;;;;;;5034297;28;20052;-71
2023/06/19 06:46:45;;;;;;;27.75;17.33;;;;;;;;;;5032970;28;20049;-71
2023/06/19 06:49:12;;;;;;;29.63;18.20;;;;;;;;;;5034365;28;20392;-71
2023/06/19 06:51:38;;;;;;;27.17;18.23;;;;;;;;;;5033346;28;20025;-71
2023/06/19 06:54:04;;;;;;;31.80;18.42;;;;;;;;;;5034154;28;20048;-71
2023/06/19 06:56:30;;;;;;;26.25;16.75;;;;;;;;;;5032642;28;20087;-71
2023/06/19 06:58:56;;;;;;;29.90;18.15;;;;;;;;;;5033776;28;20092;-71
2023/06/19 07:01:22;;;;;;;28.90;16.80;;;;;;;;;;5033809;28;20060;-71
2023/06/19 07:03:48;;;;;;;29.85;17.48;;;;;;;;;;5032680;28;20022;-71
2023/06/19 07:06:14;;;;;;;33.22;17.73;;;;;;;;;;5033913;28;20383;-71
2023/06/19 07:08:40;;;;;;;29.02;17.48;;;;;;;;;;5030759;28;20034;-71
2023/06/19 07:11:07;;;;;;;30.67;18.42;;;;;;;;;;5028938;28;20096;-71
2023/06/19 07:13:33;;;;;;;25.83;16.30;;;;;;;;;;5026926;28;20017;-71
2023/06/19 07:16:01;;;;;;;31.50;18.55;;;;;;;;;;5026699;28;20033;-71
2023/06/19 07:18:28;;;;;;;28.52;16.33;;;;;;;;;;5033731;28;20415;-71
2023/06/19 07:20:54;;;;;;;33.17;18.42;;;;;;;;;;5033788;28;20035;-71
2023/06/19 07:23:20;;;;;;;28.67;15.77;;;;;;;;;;5026441;28;20033;-71
2023/06/19 07:25:47;;;;;;;27.00;16.30;;;;;;;;;;5033618;28;20029;-71
2023/06/19 07:28:13;;;;;;;25.90;15.75;;;;;;;;;;5033501;28;20675;-71
2023/06/19 07:30:39;;;;;;;24.30;14.93;;;;;;;;;;5033508;28;20025;-71
2023/06/19 07:33:06;;;;;;;23.50;14.73;;;;;;;;;;5014751;28;20021;-71
2023/06/19 07:35:32;;;;;;;24.65;14.65;;;;;;;;;;5023159;28;20494;-71
2023/06/19 07:37:58;;;;;;;23.02;14.80;;;;;;;;;;5033045;28;20556;-71
2023/06/19 07:40:24;;;;;;;21.52;13.90;;;;;;;;;;5033078;28;20022;-71
2023/06/19 07:42:50;;;;;;;18.85;13.82;;;;;;;;;;5033206;28;20096;-71
2023/06/19 07:45:16;;;;;;;20.55;14.05;;;;;;;;;;5033061;28;20033;-71
2023/06/19 07:47:57;;;;;;;18.17;13.02;;;;;;;;;;5023447;28;20057;-71
2023/06/19 07:50:23;;;;;;;17.45;13.18;;;;;;;;;;5032880;28;20053;-71
2023/06/19 07:52:49;;;;;;;20.88;13.48;;;;;;;;;;5033243;28;20075;-71
2023/06/19 07:55:15;;;;;;;17.42;12.75;;;;;;;;;;5032826;28;20061;-71
2023/06/19 07:57:41;;;;;;;17.48;12.98;;;;;;;;;;5025076;28;20403;-71
2023/06/19 08:00:13;;;;;;;20.67;12.90;;;;;;;;;;5032678;28;20030;-71
2023/06/19 08:02:39;;;;;;;17.33;12.30;;;;;;;;;;5033058;28;20014;-71
2023/06/19 08:05:07;;;;;;;16.17;12.32;;;;;;;;;;5032385;28;20071;-71
2023/06/19 08:07:33;;;;;;;16.10;12.00;;;;;;;;;;5025142;28;20029;-71
2023/06/19 08:09:59;;;;;;;16.73;11.93;;;;;;;;;;5032586;28;20083;-71
2023/06/19 08:12:26;;;;;;;19.30;13.27;;;;;;;;;;5031478;28;20494;-71
2023/06/19 08:14:52;;;;;;;19.65;13.02;;;;;;;;;;5030278;28;20105;-71
2023/06/19 08:17:18;;;;;;;17.83;12.75;;;;;;;;;;5030646;28;20033;-71
2023/06/19 08:19:44;;;;;;;17.60;12.85;;;;;;;;;;5027798;28;20041;-71
2023/06/19 08:22:10;;;;;;;18.65;11.73;;;;;;;;;;5030847;28;20029;-71
2023/06/19 08:24:36;;;;;;;20.23;12.77;;;;;;;;;;5015497;28;20040;-71
2023/06/19 08:27:02;;;;;;;17.85;13.48;;;;;;;;;;5032185;28;20088;-71
2023/06/19 08:29:28;;;;;;;17.10;12.40;;;;;;;;;;5032245;28;20596;-71
2023/06/19 08:31:54;;;;;;;17.75;12.07;;;;;;;;;;5032410;28;20022;-71
2023/06/19 08:34:20;;;;;;;18.88;12.70;;;;;;;;;;5032293;28;20113;-71
2023/06/19 08:36:46;;;;;;;16.05;11.68;;;;;;;;;;5032573;28;20096;-71
2023/06/19 08:39:12;;;;;;;17.67;12.48;;;;;;;;;;5032151;28;20052;-72
2023/06/19 08:41:38;;;;;;;16.08;11.48;;;;;;;;;;5032222;28;20505;-72
2023/06/19 08:44:05;;;;;;;15.38;11.60;;;;;;;;;;5031836;28;20382;-71
2023/06/19 08:46:31;;;;;;;15.63;12.18;;;;;;;;;;5031027;28;20025;-72
2023/06/19 08:48:57;;;;;;;15.18;12.05;;;;;;;;;;5031835;28;20013;-71
2023/06/19 08:51:23;;;;;;;18.58;12.13;;;;;;;;;;5022479;28;20065;-71
2023/06/19 08:54:09;;;;;;;18.02;12.15;;;;;;;;;;5028104;28;20049;-71
2023/06/19 08:56:37;;;;;;;17.15;11.52;;;;;;;;;;5029791;28;20037;-71
2023/06/19 08:59:13;;;;;;;16.10;11.98;;;;;;;;;;5030689;28;20029;-71
2023/06/19 09:01:40;;;;;;;16.77;13.00;;;;;;;;;;5031638;28;20038;-71
2023/06/19 09:04:09;;;;;;;17.40;12.43;;;;;;;;;;5028348;28;20079;-71
2023/06/19 09:06:37;;;;;;;16.50;11.55;;;;;;;;;;5017484;28;20045;-71
2023/06/19 09:09:10;;;;;;;18.95;13.10;;;;;;;;;;5030431;28;20104;-71
2023/06/19 09:11:39;;;;;;;18.20;12.20;;;;;;;;;;5031912;28;20017;-71
2023/06/19 09:14:05;;;;;;;16.23;11.85;;;;;;;;;;5032308;28;20014;-71
2023/06/19 09:16:39;;;;;;;18.63;12.32;;;;;;;;;;5031795;28;21234;-71
2023/06/19 09:19:05;;;;;;;18.80;12.63;;;;;;;;;;5031866;28;20068;-71
2023/06/19 09:21:31;;;;;;;18.70;13.50;;;;;;;;;;5031810;28;20515;-71
2023/06/19 09:24:07;;;;;;;20.50;12.98;;;;;;;;;;5031839;28;20029;-71
2023/06/19 09:26:34;;;;;;;23.75;15.02;;;;;;;;;;5031388;28;20045;-71
2023/06/19 09:29:10;;;;;;;16.60;12.40;;;;;;;;;;5019946;28;20022;-71
2023/06/19 09:31:37;;;;;;;18.80;13.73;;;;;;;;;;5018662;28;20388;-71
2023/06/19 09:34:03;;;;;;;20.73;12.45;;;;;;;;;;5033999;28;20109;-71
2023/06/19 09:36:30;;;;;;;20.85;14.52;;;;;;;;;;5035493;28;20480;-71
2023/06/19 09:38:57;;;;;;;17.02;14.30;;;;;;;;;;5035451;28;20026;-71
2023/06/19 09:41:24;;;;;;;19.60;15.25;;;;;;;;;;5036965;28;20033;-70
2023/06/19 09:43:50;;;;;;;17.20;14.25;;;;;;;;;;5037207;28;20070;-71
2023/06/19 09:46:17;;;;;;;20.48;13.88;;;;;;;;;;5023737;28;20025;-71
2023/06/19 09:48:44;;;;;;;22.80;15.52;;;;;;;;;;5034867;28;20112;-71
2023/06/19 09:51:15;;;;;;;18.52;15.02;;;;;;;;;;5035505;28;20037;-71
2023/06/19 09:53:42;;;;;;;18.60;14.18;;;;;;;;;;5035343;28;20029;-71
2023/06/19 09:56:09;;;;;;;21.17;16.15;;;;;;;;;;5035298;28;20075;-71
2023/06/19 09:58:35;;;;;;;22.33;14.60;;;;;;;;;;5035337;28;20447;-72
2023/06/19 10:01:01;;;;;;;20.23;14.18;;;;;;;;;;5035234;28;20119;-72
2023/06/19 10:03:34;;;;;;;19.67;13.68;;;;;;;;;;5034841;28;20508;-72
2023/06/19 10:06:04;;;;;;;17.45;12.48;;;;;;;;;;5032002;28;20049;-72
2023/06/19 10:08:40;;;;;;;19.17;14.13;;;;;;;;;;5025850;28;20059;-72
2023/06/19 10:11:06;;;;;;;23.75;16.42;;;;;;;;;;5034871;28;20040;-72
2023/06/19 10:13:33;;;;;;;24.63;16.92;;;;;;;;;;5027437;28;20026;-72
2023/06/19 10:16:00;;;;;;;20.63;16.05;;;;;;;;;;5027270;28;20075;-72
2023/06/19 10:18:26;;;;;;;25.40;16.40;;;;;;;;;;5034529;28;20029;-72
2023/06/19 10:20:54;;;;;;;20.73;15.05;;;;;;;;;;5021881;28;20101;-72
2023/06/19 10:23:22;;;;;;;24.63;16.73;;;;;;;;;;5034631;28;20122;-72
2023/06/19 10:25:54;;;;;;;24.35;18.48;;;;;;;;;;5035005;28;20026;-72
2023/06/19 10:28:21;;;;;;;30.15;20.45;;;;;;;;;;5028146;28;20029;-71
2023/06/19 10:30:54;;;;;;;29.17;19.40;;;;;;;;;;5024074;28;20080;-72
2023/06/19 10:33:20;;;;;;;24.95;16.75;;;;;;;;;;5030693;28;20566;-72
2023/06/19 10:35:46;;;;;;;23.88;17.17;;;;;;;;;;5023132;28;20592;-72
2023/06/19 10:38:14;;;;;;;25.23;16.35;;;;;;;;;;5026826;28;20117;-72
2023/06/19 10:40:40;;;;;;;22.33;16.30;;;;;;;;;;5029579;28;20044;-72
2023/06/19 10:43:06;;;;;;;19.25;14.43;;;;;;;;;;5034534;28;20025;-72
2023/06/19 10:45:33;;;;;;;19.20;14.50;;;;;;;;;;5021667;28;20026;-72
2023/06/19 10:48:02;;;;;;;18.98;14.70;;;;;;;;;;5033338;28;20053;-72
2023/06/19 10:50:29;;;;;;;20.88;15.77;;;;;;;;;;5031501;28;20160;-71
2023/06/19 10:52:55;;;;;;;16.58;13.65;;;;;;;;;;5022422;28;20038;-72
2023/06/19 10:55:21;;;;;;;19.02;12.98;;;;;;;;;;5017875;28;20059;-72
2023/06/19 10:57:48;;;;;;;18.00;12.90;;;;;;;;;;5034297;28;20025;-72
2023/06/19 11:00:25;;;;;;;18.25;12.85;;;;;;;;;;5030625;28;20037;-72
2023/06/19 11:02:51;;;;;;;15.75;12.80;;;;;;;;;;5023729;28;20037;-72
2023/06/19 11:05:19;;;;;;;16.90;12.63;;;;;;;;;;5033141;28;20025;-71
2023/06/19 11:07:51;;;;;;;17.13;11.88;;;;;;;;;;5034278;28;20021;-72
2023/06/19 11:10:21;;;;;;;13.27;10.05;;;;;;;;;;5034274;28;20021;-71
2023/06/19 11:12:47;;;;;;;14.25;10.80;;;;;;;;;;5023295;28;20010;-72
2023/06/19 11:15:13;;;;;;;12.85;10.07;;;;;;;;;;5033986;28;20017;-72
2023/06/19 11:17:39;;;;;;;12.68;9.85;;;;;;;;;;5033345;28;20029;-72
2023/06/19 11:20:10;;;;;;;11.82;9.82;;;;;;;;;;5034009;28;20079;-72
2023/06/19 11:22:40;;;;;;;11.82;9.77;;;;;;;;;;5034209;28;20040;-72
2023/06/19 11:25:07;;;;;;;14.15;9.27;;;;;;;;;;5031855;28;20452;-72
2023/06/19 11:27:34;;;;;;;12.13;9.10;;;;;;;;;;5033307;28;20033;-72
2023/06/19 11:30:04;;;;;;;13.20;10.23;;;;;;;;;;5020457;28;20014;-72
2023/06/19 11:32:34;;;;;;;9.63;8.63;;;;;;;;;;5033382;28;20033;-72
2023/06/19 11:35:07;;;;;;;11.60;9.52;;;;;;;;;;5022049;28;20018;-72
2023/06/19 11:37:34;;;;;;;10.55;8.23;;;;;;;;;;5032399;28;20049;-72
2023/06/19 11:40:00;;;;;;;12.90;8.25;;;;;;;;;;5033485;28;20460;-72
2023/06/19 11:42:26;;;;;;;9.57;8.57;;;;;;;;;;5032994;28;20075;-72
2023/06/19 11:45:05;;;;;;;10.32;8.40;;;;;;;;;;5033482;28;20057;-72
2023/06/19 11:47:32;;;;;;;11.23;9.00;;;;;;;;;;5032815;28;20045;-72
2023/06/19 11:49:58;;;;;;;11.70;9.25;;;;;;;;;;5033142;28;20435;-72
2023/06/19 11:52:24;;;;;;;11.20;8.85;;;;;;;;;;5032843;28;20388;-72
2023/06/19 11:54:50;;;;;;;10.40;8.82;;;;;;;;;;5031541;28;20025;-72
2023/06/19 11:57:16;;;;;;;9.07;8.02;;;;;;;;;;5027240;28;20034;-72
2023/06/19 11:59:43;;;;;;;10.07;9.05;;;;;;;;;;5026189;28;20083;-72
2023/06/19 12:02:09;;;;;;;12.40;9.80;;;;;;;;;;5032796;28;20112;-72
2023/06/19 12:04:35;;;;;;;11.15;9.00;;;;;;;;;;5032968;28;20376;-72
2023/06/19 12:07:03;;;;;;;11.60;8.68;;;;;;;;;;5032976;28;20017;-72
2023/06/19 12:09:29;;;;;;;12.43;8.68;;;;;;;;;;5032996;28;20064;-72
2023/06/19 12:11:55;;;;;;;11.70;9.35;;;;;;;;;;5032744;28;20022;-72
2023/06/19 12:14:21;;;;;;;11.63;9.45;;;;;;;;;;5032709;28;20026;-72
2023/06/19 12:16:48;;;;;;;10.68;8.75;;;;;;;;;;5032683;28;20368;-72
2023/06/19 12:19:14;;;;;;;11.30;8.35;;;;;;;;;;5032711;28;20037;-72
2023/06/19 12:21:40;;;;;;;10.52;9.43;;;;;;;;;;5028644;28;20036;-72
2023/06/19 12:24:06;;;;;;;11.90;9.02;;;;;;;;;;5032573;28;20017;-72
2023/06/19 12:26:36;;;;;;;10.50;8.93;;;;;;;;;;5032266;28;20025;-72
2023/06/19 12:29:02;;;;;;;;;;;;;;;;;;5033118;28;20018;-72
2023/06/19 12:31:28;;;;;;;10.30;8.57;;;;;;;;;;5032342;28;20031;-72
2023/06/19 12:33:54;;;;;;;10.63;8.48;;;;;;;;;;5032563;28;20024;-72
2023/06/19 12:36:20;;;;;;;12.55;9.18;;;;;;;;;;5026819;28;20034;-72
2023/06/19 12:38:47;;;;;;;9.98;8.40;;;;;;;;;;5032140;28;20468;-72
2023/06/19 12:41:13;;;;;;;12.13;9.02;;;;;;;;;;5025447;28;20036;-72
2023/06/19 12:43:39;;;;;;;10.55;9.15;;;;;;;;;;5025156;28;20118;-72
2023/06/19 12:46:05;;;;;;;12.00;8.55;;;;;;;;;;5031969;28;20460;-72
2023/06/19 12:48:32;;;;;;;12.15;9.93;;;;;;;;;;5032368;28;20057;-72
2023/06/19 12:50:58;;;;;;;11.27;9.27;;;;;;;;;;5032197;28;20022;-72
2023/06/19 12:53:28;;;;;;;14.38;9.05;;;;;;;;;;5032097;28;20042;-72
2023/06/19 12:55:54;;;;;;;14.27;10.90;;;;;;;;;;5020628;28;20014;-72
2023/06/19 12:58:20;;;;;;;12.60;9.35;;;;;;;;;;5025940;28;20060;-72
2023/06/19 13:00:46;;;;;;;10.57;9.10;;;;;;;;;;5032168;28;20100;-72
2023/06/19 13:03:12;;;;;;;12.98;9.07;;;;;;;;;;5031936;28;20105;-72
2023/06/19 13:05:38;;;;;;;11.13;8.70;;;;;;;;;;5032257;28;20026;-72
2023/06/19 13:08:04;;;;;;;12.35;9.18;;;;;;;;;;5031136;28;20083;-72
2023/06/19 13:10:30;;;;;;;12.23;10.35;;;;;;;;;;5032002;28;20032;-72
2023/06/19 13:12:58;;;;;;;10.75;9.10;;;;;;;;;;5028120;28;20608;-72
2023/06/19 13:15:27;;;;;;;12.15;8.68;;;;;;;;;;5031990;28;20072;-72
2023/06/19 13:17:53;;;;;;;9.43;8.05;;;;;;;;;;5031475;28;20030;-72
2023/06/19 13:20:19;;;;;;;8.88;7.85;;;;;;;;;;5047214;28;20021;-72
2023/06/19 13:22:45;;;;;;;9.70;8.63;;;;;;;;;;5030836;28;20031;-72
2023/06/19 13:25:11;;;;;;;14.50;8.00;;;;;;;;;;5031854;28;20342;-72
2023/06/19 13:27:37;;;;;;;9.50;7.05;;;;;;;;;;5021588;28;20109;-72
2023/06/19 13:30:04;;;;;;;8.32;7.40;;;;;;;;;;5031715;28;20159;-72
2023/06/19 13:32:30;;;;;;;9.00;7.45;;;;;;;;;;5031480;28;20026;-72
2023/06/19 13:34:56;;;;;;;7.30;6.60;;;;;;;;;;5030362;28;20109;-72
2023/06/19 13:37:23;;;;;;;7.18;6.28;;;;;;;;;;5026052;28;20528;-72
2023/06/19 13:39:49;;;;;;;12.48;7.55;;;;;;;;;;5030912;28;20079;-72
2023/06/19 13:42:15;;;;;;;8.13;7.32;;;;;;;;;;5030974;28;20092;-72
2023/06/19 13:44:41;;;;;;;8.80;6.50;;;;;;;;;;5031514;28;20105;-72
2023/06/19 13:47:07;;;;;;;8.20;6.82;;;;;;;;;;5031216;28;20049;-73
2023/06/19 13:49:33;;;;;;;8.93;6.57;;;;;;;;;;5031559;28;20040;-72
2023/06/19 13:51:59;;;;;;;8.20;6.80;;;;;;;;;;5031249;28;20034;-72
2023/06/19 13:54:25;;;;;;;8.32;6.30;;;;;;;;;;5031460;28;20040;-73
2023/06/19 13:56:51;;;;;;;7.35;6.43;;;;;;;;;;5031613;28;20101;-72
2023/06/19 13:59:17;;;;;;;7.93;6.75;;;;;;;;;;5031322;28;20049;-72
2023/06/19 14:01:43;;;;;;;8.40;6.60;;;;;;;;;;5031054;28;20041;-72
2023/06/19 14:04:09;;;;;;;11.15;7.60;;;;;;;;;;5031639;28;20029;-72
2023/06/19 14:06:37;;;;;;;9.52;6.63;;;;;;;;;;5031283;28;20028;-72
2023/06/19 14:09:03;;;;;;;8.70;6.30;;;;;;;;;;5031706;28;20029;-72
2023/06/19 14:11:29;;;;;;;8.15;5.88;;;;;;;;;;5031351;28;20034;-72
2023/06/19 14:13:55;;;;;;;7.13;5.38;;;;;;;;;;5032078;28;20032;-72
2023/06/19 14:16:22;;;;;;;7.53;6.28;;;;;;;;;;5028243;28;20030;-72
2023/06/19 14:18:48;;;;;;;9.55;5.95;;;;;;;;;;5031158;28;20037;-72
2023/06/19 14:21:14;;;;;;;6.78;5.32;;;;;;;;;;5034588;28;20034;-72
2023/06/19 14:23:43;;;;;;;8.10;6.10;;;;;;;;;;5021554;28;20539;-72
2023/06/19 14:26:09;;;;;;;11.10;6.97;;;;;;;;;;5025923;28;20037;-72